sensor_id;sensor_type;location;lat;lon;timestamp;P1;durP1;ratioP1;P2;durP2;ratioP2
21122;SDS011;10719;48.130;11.630;2023-08-12T00:00:10;9.27;;;3.85;;
21122;SDS011;10719;48.130;11.630;2023-08-12T00:02:37;9.75;;;4.00;;
21122;SDS011;10719;48.130;11.630;2023-08-12T00:05:07;12.68;;;4.22;;
21122;SDS011;10719;48.130;11.630;2023-08-12T00:07:33;10.70;;;3.97;;
21122;SDS011;10719;48.130;11.630;2023-08-12T00:09:59;7.43;;;3.35;;
21122;SDS011;10719;48.130;11.630;2023-08-12T00:12:28;9.10;;;3.33;;
21122;SDS011;10719;48.130;11.630;2023-08-12T00:14:54;7.35;;;3.58;;
21122;SDS011;10719;48.130;11.630;2023-08-12T00:17:20;9.38;;;3.55;;
21122;SDS011;10719;48.130;11.630;2023-08-12T00:19:46;9.35;;;3.53;;
21122;SDS011;10719;48.130;11.630;2023-08-12T00:22:11;7.78;;;3.33;;
21122;SDS011;10719;48.130;11.630;2023-08-12T00:24:38;11.90;;;3.55;;
21122;SDS011;10719;48.130;11.630;2023-08-12T00:27:03;8.27;;;3.65;;
21122;SDS011;10719;48.130;11.630;2023-08-12T00:29:29;6.47;;;3.10;;
21122;SDS011;10719;48.130;11.630;2023-08-12T00:31:55;10.20;;;3.90;;
21122;SDS011;10719;48.130;11.630;2023-08-12T00:34:21;8.85;;;3.40;;
21122;SDS011;10719;48.130;11.630;2023-08-12T00:36:46;11.13;;;3.63;;
21122;SDS011;10719;48.130;11.630;2023-08-12T00:39:12;8.50;;;4.00;;
21122;SDS011;10719;48.130;11.630;2023-08-12T00:41:38;9.35;;;3.25;;
21122;SDS011;10719;48.130;11.630;2023-08-12T00:44:03;9.82;;;3.80;;
21122;SDS011;10719;48.130;11.630;2023-08-12T00:46:29;10.13;;;3.63;;
21122;SDS011;10719;48.130;11.630;2023-08-12T00:48:55;8.07;;;3.22;;
21122;SDS011;10719;48.130;11.630;2023-08-12T00:51:20;6.82;;;3.13;;
21122;SDS011;10719;48.130;11.630;2023-08-12T00:53:46;9.45;;;3.20;;
21122;SDS011;10719;48.130;11.630;2023-08-12T00:56:13;7.35;;;3.20;;
21122;SDS011;10719;48.130;11.630;2023-08-12T00:58:39;11.68;;;3.55;;
21122;SDS011;10719;48.130;11.630;2023-08-12T01:01:05;9.95;;;3.65;;
21122;SDS011;10719;48.130;11.630;2023-08-12T01:03:31;9.68;;;3.42;;
21122;SDS011;10719;48.130;11.630;2023-08-12T01:05:57;9.77;;;3.65;;
21122;SDS011;10719;48.130;11.630;2023-08-12T01:08:23;6.85;;;3.17;;
21122;SDS011;10719;48.130;11.630;2023-08-12T01:10:56;8.05;;;3.33;;
21122;SDS011;10719;48.130;11.630;2023-08-12T01:16:12;8.88;;;4.05;;
21122;SDS011;10719;48.130;11.630;2023-08-12T01:18:39;9.88;;;3.45;;
21122;SDS011;10719;48.130;11.630;2023-08-12T01:21:06;9.73;;;3.85;;
21122;SDS011;10719;48.130;11.630;2023-08-12T01:23:37;7.00;;;3.00;;
21122;SDS011;10719;48.130;11.630;2023-08-12T01:26:04;7.18;;;2.90;;
21122;SDS011;10719;48.130;11.630;2023-08-12T01:28:29;9.02;;;3.35;;
21122;SDS011;10719;48.130;11.630;2023-08-12T01:30:56;9.80;;;3.28;;
21122;SDS011;10719;48.130;11.630;2023-08-12T01:33:31;6.82;;;3.30;;
21122;SDS011;10719;48.130;11.630;2023-08-12T01:36:06;8.00;;;3.15;;
21122;SDS011;10719;48.130;11.630;2023-08-12T01:38:38;9.05;;;2.85;;
21122;SDS011;10719;48.130;11.630;2023-08-12T01:41:04;8.10;;;3.25;;
21122;SDS011;10719;48.130;11.630;2023-08-12T01:43:36;9.15;;;3.50;;
21122;SDS011;10719;48.130;11.630;2023-08-12T01:46:02;7.63;;;2.97;;
21122;SDS011;10719;48.130;11.630;2023-08-12T01:48:28;8.30;;;3.10;;
21122;SDS011;10719;48.130;11.630;2023-08-12T01:50:53;7.38;;;3.22;;
21122;SDS011;10719;48.130;11.630;2023-08-12T01:53:19;10.00;;;3.50;;
21122;SDS011;10719;48.130;11.630;2023-08-12T01:55:44;6.97;;;3.05;;
21122;SDS011;10719;48.130;11.630;2023-08-12T01:58:11;6.90;;;2.92;;
21122;SDS011;10719;48.130;11.630;2023-08-12T02:00:36;7.10;;;3.25;;
21122;SDS011;10719;48.130;11.630;2023-08-12T02:03:02;8.02;;;3.17;;
21122;SDS011;10719;48.130;11.630;2023-08-12T02:05:28;7.82;;;3.22;;
21122;SDS011;10719;48.130;11.630;2023-08-12T02:07:53;8.07;;;3.40;;
21122;SDS011;10719;48.130;11.630;2023-08-12T02:10:19;6.35;;;2.83;;
21122;SDS011;10719;48.130;11.630;2023-08-12T02:12:45;5.38;;;2.72;;
21122;SDS011;10719;48.130;11.630;2023-08-12T02:15:10;8.52;;;3.60;;
21122;SDS011;10719;48.130;11.630;2023-08-12T02:17:36;6.78;;;3.25;;
21122;SDS011;10719;48.130;11.630;2023-08-12T02:20:02;7.43;;;3.22;;
21122;SDS011;10719;48.130;11.630;2023-08-12T02:22:28;8.63;;;3.42;;
21122;SDS011;10719;48.130;11.630;2023-08-12T02:24:54;9.43;;;3.05;;
21122;SDS011;10719;48.130;11.630;2023-08-12T02:27:20;9.32;;;3.67;;
21122;SDS011;10719;48.130;11.630;2023-08-12T02:29:46;7.72;;;3.25;;
21122;SDS011;10719;48.130;11.630;2023-08-12T02:32:11;8.55;;;3.50;;
21122;SDS011;10719;48.130;11.630;2023-08-12T02:34:37;7.60;;;3.20;;
21122;SDS011;10719;48.130;11.630;2023-08-12T02:37:02;7.50;;;3.10;;
21122;SDS011;10719;48.130;11.630;2023-08-12T02:39:28;7.15;;;3.28;;
21122;SDS011;10719;48.130;11.630;2023-08-12T02:41:55;7.07;;;3.08;;
21122;SDS011;10719;48.130;11.630;2023-08-12T02:44:20;6.70;;;2.90;;
21122;SDS011;10719;48.130;11.630;2023-08-12T02:46:46;8.00;;;3.00;;
21122;SDS011;10719;48.130;11.630;2023-08-12T02:49:12;12.50;;;3.10;;
21122;SDS011;10719;48.130;11.630;2023-08-12T02:51:37;6.82;;;3.00;;
21122;SDS011;10719;48.130;11.630;2023-08-12T02:54:03;8.77;;;3.63;;
21122;SDS011;10719;48.130;11.630;2023-08-12T02:56:28;8.82;;;3.15;;
21122;SDS011;10719;48.130;11.630;2023-08-12T02:58:54;7.20;;;3.05;;
21122;SDS011;10719;48.130;11.630;2023-08-12T03:01:20;6.55;;;2.63;;
21122;SDS011;10719;48.130;11.630;2023-08-12T03:03:47;7.80;;;3.25;;
21122;SDS011;10719;48.130;11.630;2023-08-12T03:06:12;8.85;;;3.40;;
21122;SDS011;10719;48.130;11.630;2023-08-12T03:08:38;8.32;;;3.00;;
21122;SDS011;10719;48.130;11.630;2023-08-12T03:11:03;9.13;;;3.38;;
21122;SDS011;10719;48.130;11.630;2023-08-12T03:13:29;8.30;;;3.17;;
21122;SDS011;10719;48.130;11.630;2023-08-12T03:15:55;6.68;;;2.88;;
21122;SDS011;10719;48.130;11.630;2023-08-12T03:18:21;13.38;;;3.00;;
21122;SDS011;10719;48.130;11.630;2023-08-12T03:20:47;8.32;;;3.42;;
21122;SDS011;10719;48.130;11.630;2023-08-12T03:23:13;6.85;;;2.97;;
21122;SDS011;10719;48.130;11.630;2023-08-12T03:25:39;7.20;;;3.00;;
21122;SDS011;10719;48.130;11.630;2023-08-12T03:28:04;6.43;;;3.15;;
21122;SDS011;10719;48.130;11.630;2023-08-12T03:30:30;7.43;;;3.78;;
21122;SDS011;10719;48.130;11.630;2023-08-12T03:32:56;10.10;;;4.03;;
21122;SDS011;10719;48.130;11.630;2023-08-12T03:35:22;9.80;;;3.67;;
21122;SDS011;10719;48.130;11.630;2023-08-12T03:37:47;8.38;;;3.88;;
21122;SDS011;10719;48.130;11.630;2023-08-12T03:40:13;8.63;;;3.17;;
21122;SDS011;10719;48.130;11.630;2023-08-12T03:42:38;7.45;;;3.20;;
21122;SDS011;10719;48.130;11.630;2023-08-12T03:45:04;9.10;;;3.65;;
21122;SDS011;10719;48.130;11.630;2023-08-12T03:47:30;8.32;;;3.13;;
21122;SDS011;10719;48.130;11.630;2023-08-12T03:49:55;8.48;;;3.28;;
21122;SDS011;10719;48.130;11.630;2023-08-12T03:52:21;8.80;;;3.10;;
21122;SDS011;10719;48.130;11.630;2023-08-12T03:54:47;8.25;;;3.25;;
21122;SDS011;10719;48.130;11.630;2023-08-12T03:57:13;9.52;;;3.20;;
21122;SDS011;10719;48.130;11.630;2023-08-12T03:59:38;9.88;;;3.90;;
21122;SDS011;10719;48.130;11.630;2023-08-12T04:02:04;8.32;;;3.45;;
21122;SDS011;10719;48.130;11.630;2023-08-12T04:04:29;8.60;;;3.20;;
21122;SDS011;10719;48.130;11.630;2023-08-12T04:06:55;6.78;;;3.28;;
21122;SDS011;10719;48.130;11.630;2023-08-12T04:09:20;7.82;;;3.13;;
21122;SDS011;10719;48.130;11.630;2023-08-12T04:11:46;9.55;;;3.17;;
21122;SDS011;10719;48.130;11.630;2023-08-12T04:14:12;7.80;;;3.38;;
21122;SDS011;10719;48.130;11.630;2023-08-12T04:16:39;9.00;;;3.60;;
21122;SDS011;10719;48.130;11.630;2023-08-12T04:19:04;7.60;;;3.15;;
21122;SDS011;10719;48.130;11.630;2023-08-12T04:21:30;8.82;;;3.38;;
21122;SDS011;10719;48.130;11.630;2023-08-12T04:23:56;8.23;;;3.30;;
21122;SDS011;10719;48.130;11.630;2023-08-12T04:26:21;8.40;;;3.45;;
21122;SDS011;10719;48.130;11.630;2023-08-12T04:28:47;8.55;;;3.40;;
21122;SDS011;10719;48.130;11.630;2023-08-12T04:31:12;8.40;;;3.50;;
21122;SDS011;10719;48.130;11.630;2023-08-12T04:33:38;8.65;;;3.35;;
21122;SDS011;10719;48.130;11.630;2023-08-12T04:36:04;8.50;;;3.10;;
21122;SDS011;10719;48.130;11.630;2023-08-12T04:38:30;8.07;;;3.45;;
21122;SDS011;10719;48.130;11.630;2023-08-12T04:40:56;9.35;;;3.22;;
21122;SDS011;10719;48.130;11.630;2023-08-12T04:43:22;6.90;;;2.75;;
21122;SDS011;10719;48.130;11.630;2023-08-12T04:45:47;8.02;;;3.08;;
21122;SDS011;10719;48.130;11.630;2023-08-12T04:48:14;7.82;;;3.22;;
21122;SDS011;10719;48.130;11.630;2023-08-12T04:50:41;8.93;;;3.63;;
21122;SDS011;10719;48.130;11.630;2023-08-12T04:53:07;9.32;;;3.70;;
21122;SDS011;10719;48.130;11.630;2023-08-12T04:55:33;8.68;;;3.50;;
21122;SDS011;10719;48.130;11.630;2023-08-12T04:57:59;8.60;;;3.63;;
21122;SDS011;10719;48.130;11.630;2023-08-12T05:00:25;11.27;;;4.00;;
21122;SDS011;10719;48.130;11.630;2023-08-12T05:02:50;8.95;;;3.50;;
21122;SDS011;10719;48.130;11.630;2023-08-12T05:05:16;8.32;;;3.42;;
21122;SDS011;10719;48.130;11.630;2023-08-12T05:07:41;8.98;;;3.78;;
21122;SDS011;10719;48.130;11.630;2023-08-12T05:10:09;8.05;;;3.50;;
21122;SDS011;10719;48.130;11.630;2023-08-12T05:12:34;8.63;;;3.60;;
21122;SDS011;10719;48.130;11.630;2023-08-12T05:15:00;8.55;;;3.72;;
21122;SDS011;10719;48.130;11.630;2023-08-12T05:17:26;9.23;;;3.50;;
21122;SDS011;10719;48.130;11.630;2023-08-12T05:19:51;6.47;;;3.00;;
21122;SDS011;10719;48.130;11.630;2023-08-12T05:22:17;8.60;;;3.63;;
21122;SDS011;10719;48.130;11.630;2023-08-12T05:24:42;8.05;;;3.38;;
21122;SDS011;10719;48.130;11.630;2023-08-12T05:27:08;5.60;;;2.88;;
21122;SDS011;10719;48.130;11.630;2023-08-12T05:29:33;8.10;;;3.10;;
21122;SDS011;10719;48.130;11.630;2023-08-12T05:31:59;8.15;;;3.42;;
21122;SDS011;10719;48.130;11.630;2023-08-12T05:34:24;6.43;;;2.97;;
21122;SDS011;10719;48.130;11.630;2023-08-12T05:36:50;8.17;;;3.30;;
21122;SDS011;10719;48.130;11.630;2023-08-12T05:39:16;9.15;;;3.58;;
21122;SDS011;10719;48.130;11.630;2023-08-12T05:41:41;7.13;;;3.00;;
21122;SDS011;10719;48.130;11.630;2023-08-12T05:44:07;7.50;;;2.88;;
21122;SDS011;10719;48.130;11.630;2023-08-12T05:46:32;7.18;;;2.97;;
21122;SDS011;10719;48.130;11.630;2023-08-12T05:48:58;10.27;;;3.42;;
21122;SDS011;10719;48.130;11.630;2023-08-12T05:51:24;5.65;;;2.63;;
21122;SDS011;10719;48.130;11.630;2023-08-12T05:53:50;11.77;;;3.08;;
21122;SDS011;10719;48.130;11.630;2023-08-12T05:56:16;7.72;;;3.17;;
21122;SDS011;10719;48.130;11.630;2023-08-12T05:58:41;9.20;;;2.90;;
21122;SDS011;10719;48.130;11.630;2023-08-12T06:01:07;9.90;;;3.53;;
21122;SDS011;10719;48.130;11.630;2023-08-12T06:03:33;7.05;;;2.97;;
21122;SDS011;10719;48.130;11.630;2023-08-12T06:05:58;8.50;;;2.72;;
21122;SDS011;10719;48.130;11.630;2023-08-12T06:08:24;9.90;;;3.22;;
21122;SDS011;10719;48.130;11.630;2023-08-12T06:10:49;6.50;;;2.90;;
21122;SDS011;10719;48.130;11.630;2023-08-12T06:13:15;5.72;;;2.78;;
21122;SDS011;10719;48.130;11.630;2023-08-12T06:15:40;6.57;;;2.88;;
21122;SDS011;10719;48.130;11.630;2023-08-12T06:18:06;6.22;;;2.60;;
21122;SDS011;10719;48.130;11.630;2023-08-12T06:20:32;8.38;;;3.20;;
21122;SDS011;10719;48.130;11.630;2023-08-12T06:22:57;7.55;;;2.78;;
21122;SDS011;10719;48.130;11.630;2023-08-12T06:25:23;7.03;;;2.85;;
21122;SDS011;10719;48.130;11.630;2023-08-12T06:27:49;8.40;;;2.88;;
21122;SDS011;10719;48.130;11.630;2023-08-12T06:30:14;7.47;;;2.83;;
21122;SDS011;10719;48.130;11.630;2023-08-12T06:32:40;4.90;;;2.50;;
21122;SDS011;10719;48.130;11.630;2023-08-12T06:35:06;6.90;;;2.70;;
21122;SDS011;10719;48.130;11.630;2023-08-12T06:37:32;6.20;;;2.80;;
21122;SDS011;10719;48.130;11.630;2023-08-12T06:39:57;6.57;;;2.53;;
21122;SDS011;10719;48.130;11.630;2023-08-12T06:42:23;6.85;;;2.53;;
21122;SDS011;10719;48.130;11.630;2023-08-12T06:44:55;6.70;;;2.65;;
21122;SDS011;10719;48.130;11.630;2023-08-12T06:47:22;9.98;;;2.50;;
21122;SDS011;10719;48.130;11.630;2023-08-12T06:49:48;7.63;;;2.72;;
21122;SDS011;10719;48.130;11.630;2023-08-12T06:52:14;7.30;;;2.78;;
21122;SDS011;10719;48.130;11.630;2023-08-12T06:54:41;4.75;;;2.53;;
21122;SDS011;10719;48.130;11.630;2023-08-12T06:57:06;6.93;;;2.87;;
21122;SDS011;10719;48.130;11.630;2023-08-12T06:59:32;7.55;;;2.78;;
21122;SDS011;10719;48.130;11.630;2023-08-12T07:01:57;6.85;;;2.90;;
21122;SDS011;10719;48.130;11.630;2023-08-12T07:04:23;5.93;;;2.38;;
21122;SDS011;10719;48.130;11.630;2023-08-12T07:06:49;6.45;;;2.92;;
21122;SDS011;10719;48.130;11.630;2023-08-12T07:09:14;5.38;;;2.40;;
21122;SDS011;10719;48.130;11.630;2023-08-12T07:11:40;5.28;;;2.20;;
21122;SDS011;10719;48.130;11.630;2023-08-12T07:14:05;4.82;;;2.13;;
21122;SDS011;10719;48.130;11.630;2023-08-12T07:16:31;6.00;;;2.50;;
21122;SDS011;10719;48.130;11.630;2023-08-12T07:18:57;6.50;;;2.50;;
21122;SDS011;10719;48.130;11.630;2023-08-12T07:21:22;6.88;;;2.70;;
21122;SDS011;10719;48.130;11.630;2023-08-12T07:23:48;10.13;;;3.10;;
21122;SDS011;10719;48.130;11.630;2023-08-12T07:26:13;4.65;;;2.33;;
21122;SDS011;10719;48.130;11.630;2023-08-12T07:28:39;4.75;;;2.20;;
21122;SDS011;10719;48.130;11.630;2023-08-12T07:31:05;6.60;;;2.50;;
21122;SDS011;10719;48.130;11.630;2023-08-12T07:33:31;3.80;;;2.05;;
21122;SDS011;10719;48.130;11.630;2023-08-12T07:35:56;7.75;;;2.80;;
21122;SDS011;10719;48.130;11.630;2023-08-12T07:38:22;5.35;;;2.40;;
21122;SDS011;10719;48.130;11.630;2023-08-12T07:40:48;6.72;;;2.90;;
21122;SDS011;10719;48.130;11.630;2023-08-12T07:43:14;6.38;;;2.50;;
21122;SDS011;10719;48.130;11.630;2023-08-12T07:45:40;5.18;;;2.47;;
21122;SDS011;10719;48.130;11.630;2023-08-12T07:48:05;5.25;;;2.30;;
21122;SDS011;10719;48.130;11.630;2023-08-12T07:50:31;5.05;;;2.35;;
21122;SDS011;10719;48.130;11.630;2023-08-12T07:52:57;7.38;;;2.92;;
21122;SDS011;10719;48.130;11.630;2023-08-12T07:55:22;5.40;;;2.30;;
21122;SDS011;10719;48.130;11.630;2023-08-12T07:57:48;4.63;;;2.30;;
21122;SDS011;10719;48.130;11.630;2023-08-12T08:00:13;6.40;;;2.42;;
21122;SDS011;10719;48.130;11.630;2023-08-12T08:02:39;7.45;;;2.90;;
21122;SDS011;10719;48.130;11.630;2023-08-12T08:05:05;5.38;;;2.45;;
21122;SDS011;10719;48.130;11.630;2023-08-12T08:07:31;5.10;;;2.35;;
21122;SDS011;10719;48.130;11.630;2023-08-12T08:09:57;5.75;;;2.70;;
21122;SDS011;10719;48.130;11.630;2023-08-12T08:12:23;7.00;;;2.88;;
21122;SDS011;10719;48.130;11.630;2023-08-12T08:14:48;4.32;;;2.20;;
21122;SDS011;10719;48.130;11.630;2023-08-12T08:17:14;6.53;;;2.60;;
21122;SDS011;10719;48.130;11.630;2023-08-12T08:19:40;6.75;;;2.70;;
21122;SDS011;10719;48.130;11.630;2023-08-12T08:22:05;5.88;;;2.47;;
21122;SDS011;10719;48.130;11.630;2023-08-12T08:24:31;6.38;;;2.22;;
21122;SDS011;10719;48.130;11.630;2023-08-12T08:26:56;7.45;;;2.35;;
21122;SDS011;10719;48.130;11.630;2023-08-12T08:29:22;6.15;;;2.45;;
21122;SDS011;10719;48.130;11.630;2023-08-12T08:31:48;5.13;;;2.55;;
21122;SDS011;10719;48.130;11.630;2023-08-12T08:34:14;6.60;;;2.67;;
21122;SDS011;10719;48.130;11.630;2023-08-12T08:36:40;7.15;;;2.60;;
21122;SDS011;10719;48.130;11.630;2023-08-12T08:39:05;7.30;;;2.75;;
21122;SDS011;10719;48.130;11.630;2023-08-12T08:41:31;7.70;;;2.42;;
21122;SDS011;10719;48.130;11.630;2023-08-12T08:44:02;5.47;;;2.53;;
21122;SDS011;10719;48.130;11.630;2023-08-12T08:46:30;9.13;;;2.78;;
21122;SDS011;10719;48.130;11.630;2023-08-12T08:48:56;5.10;;;2.22;;
21122;SDS011;10719;48.130;11.630;2023-08-12T08:51:25;6.25;;;2.30;;
21122;SDS011;10719;48.130;11.630;2023-08-12T08:53:53;4.18;;;2.20;;
21122;SDS011;10719;48.130;11.630;2023-08-12T08:56:19;6.15;;;2.20;;
21122;SDS011;10719;48.130;11.630;2023-08-12T08:58:46;4.13;;;2.35;;
21122;SDS011;10719;48.130;11.630;2023-08-12T09:01:11;6.70;;;3.00;;
21122;SDS011;10719;48.130;11.630;2023-08-12T09:03:39;5.15;;;2.55;;
21122;SDS011;10719;48.130;11.630;2023-08-12T09:06:07;6.80;;;2.45;;
21122;SDS011;10719;48.130;11.630;2023-08-12T09:08:33;5.63;;;2.50;;
21122;SDS011;10719;48.130;11.630;2023-08-12T09:11:00;9.25;;;2.60;;
21122;SDS011;10719;48.130;11.630;2023-08-12T09:13:27;5.32;;;2.50;;
21122;SDS011;10719;48.130;11.630;2023-08-12T09:15:53;4.45;;;2.40;;
21122;SDS011;10719;48.130;11.630;2023-08-12T09:18:19;6.25;;;2.50;;
21122;SDS011;10719;48.130;11.630;2023-08-12T09:20:49;4.15;;;2.45;;
21122;SDS011;10719;48.130;11.630;2023-08-12T09:23:18;5.47;;;2.58;;
21122;SDS011;10719;48.130;11.630;2023-08-12T09:25:44;4.97;;;2.22;;
21122;SDS011;10719;48.130;11.630;2023-08-12T09:28:10;5.38;;;2.58;;
21122;SDS011;10719;48.130;11.630;2023-08-12T09:30:37;4.15;;;2.30;;
21122;SDS011;10719;48.130;11.630;2023-08-12T09:33:04;6.00;;;2.70;;
21122;SDS011;10719;48.130;11.630;2023-08-12T09:35:36;7.18;;;2.50;;
21122;SDS011;10719;48.130;11.630;2023-08-12T09:38:04;4.63;;;2.20;;
21122;SDS011;10719;48.130;11.630;2023-08-12T09:40:32;4.45;;;2.15;;
21122;SDS011;10719;48.130;11.630;2023-08-12T09:42:59;5.93;;;2.30;;
21122;SDS011;10719;48.130;11.630;2023-08-12T09:45:25;7.50;;;2.47;;
21122;SDS011;10719;48.130;11.630;2023-08-12T09:47:52;5.30;;;2.20;;
21122;SDS011;10719;48.130;11.630;2023-08-12T09:50:20;5.97;;;2.10;;
21122;SDS011;10719;48.130;11.630;2023-08-12T09:52:48;4.95;;;2.28;;
21122;SDS011;10719;48.130;11.630;2023-08-12T09:55:15;4.45;;;1.90;;
21122;SDS011;10719;48.130;11.630;2023-08-12T09:57:42;5.38;;;2.10;;
21122;SDS011;10719;48.130;11.630;2023-08-12T10:00:12;4.32;;;2.30;;
21122;SDS011;10719;48.130;11.630;2023-08-12T10:02:43;5.40;;;2.45;;
21122;SDS011;10719;48.130;11.630;2023-08-12T10:05:11;4.82;;;2.22;;
21122;SDS011;10719;48.130;11.630;2023-08-12T10:07:38;6.15;;;2.30;;
21122;SDS011;10719;48.130;11.630;2023-08-12T10:10:05;8.02;;;2.70;;
21122;SDS011;10719;48.130;11.630;2023-08-12T10:12:32;7.28;;;2.67;;
21122;SDS011;10719;48.130;11.630;2023-08-12T10:14:58;5.85;;;2.65;;
21122;SDS011;10719;48.130;11.630;2023-08-12T10:17:25;4.47;;;2.25;;
21122;SDS011;10719;48.130;11.630;2023-08-12T10:19:57;4.47;;;2.35;;
21122;SDS011;10719;48.130;11.630;2023-08-12T10:22:24;4.78;;;2.35;;
21122;SDS011;10719;48.130;11.630;2023-08-12T10:24:54;5.85;;;2.40;;
21122;SDS011;10719;48.130;11.630;2023-08-12T10:27:19;9.95;;;2.60;;
21122;SDS011;10719;48.130;11.630;2023-08-12T10:29:46;6.15;;;2.50;;
21122;SDS011;10719;48.130;11.630;2023-08-12T10:32:12;4.85;;;2.35;;
21122;SDS011;10719;48.130;11.630;2023-08-12T10:34:39;4.53;;;1.92;;
21122;SDS011;10719;48.130;11.630;2023-08-12T10:37:04;4.20;;;2.10;;
21122;SDS011;10719;48.130;11.630;2023-08-12T10:39:32;7.38;;;2.42;;
21122;SDS011;10719;48.130;11.630;2023-08-12T10:41:58;5.43;;;2.28;;
21122;SDS011;10719;48.130;11.630;2023-08-12T10:44:28;6.70;;;2.50;;
21122;SDS011;10719;48.130;11.630;2023-08-12T10:47:07;5.82;;;2.55;;
21122;SDS011;10719;48.130;11.630;2023-08-12T10:49:37;7.25;;;2.10;;
21122;SDS011;10719;48.130;11.630;2023-08-12T10:52:46;6.72;;;3.08;;
21122;SDS011;10719;48.130;11.630;2023-08-12T10:55:23;6.55;;;2.22;;
21122;SDS011;10719;48.130;11.630;2023-08-12T10:57:50;5.47;;;2.50;;
21122;SDS011;10719;48.130;11.630;2023-08-12T11:00:22;8.07;;;2.92;;
21122;SDS011;10719;48.130;11.630;2023-08-12T11:02:51;4.60;;;2.30;;
21122;SDS011;10719;48.130;11.630;2023-08-12T11:05:18;4.90;;;2.33;;
21122;SDS011;10719;48.130;11.630;2023-08-12T11:10:26;4.30;;;2.13;;
21122;SDS011;10719;48.130;11.630;2023-08-12T11:15:28;8.93;;;2.72;;
21122;SDS011;10719;48.130;11.630;2023-08-12T11:18:06;4.60;;;2.03;;
21122;SDS011;10719;48.130;11.630;2023-08-12T11:20:33;6.65;;;2.90;;
21122;SDS011;10719;48.130;11.630;2023-08-12T11:22:59;7.72;;;2.60;;
21122;SDS011;10719;48.130;11.630;2023-08-12T11:25:27;6.20;;;2.47;;
21122;SDS011;10719;48.130;11.630;2023-08-12T11:27:54;4.65;;;2.13;;
21122;SDS011;10719;48.130;11.630;2023-08-12T11:30:21;5.10;;;2.53;;
21122;SDS011;10719;48.130;11.630;2023-08-12T11:32:56;4.50;;;2.42;;
21122;SDS011;10719;48.130;11.630;2023-08-12T11:35:23;5.30;;;2.55;;
21122;SDS011;10719;48.130;11.630;2023-08-12T11:37:53;3.70;;;2.05;;
21122;SDS011;10719;48.130;11.630;2023-08-12T11:40:21;7.43;;;2.30;;
21122;SDS011;10719;48.130;11.630;2023-08-12T11:42:48;5.13;;;2.30;;
21122;SDS011;10719;48.130;11.630;2023-08-12T11:45:17;8.57;;;2.45;;
21122;SDS011;10719;48.130;11.630;2023-08-12T11:47:46;9.15;;;2.30;;
21122;SDS011;10719;48.130;11.630;2023-08-12T11:50:17;4.35;;;1.73;;
21122;SDS011;10719;48.130;11.630;2023-08-12T11:52:44;3.70;;;1.85;;
21122;SDS011;10719;48.130;11.630;2023-08-12T11:55:11;5.43;;;2.30;;
21122;SDS011;10719;48.130;11.630;2023-08-12T11:57:39;4.20;;;2.30;;
21122;SDS011;10719;48.130;11.630;2023-08-12T12:00:07;2.97;;;1.80;;
21122;SDS011;10719;48.130;11.630;2023-08-12T12:02:45;5.63;;;2.38;;
21122;SDS011;10719;48.130;11.630;2023-08-12T12:05:11;4.45;;;1.98;;
21122;SDS011;10719;48.130;11.630;2023-08-12T12:07:37;3.97;;;1.80;;
21122;SDS011;10719;48.130;11.630;2023-08-12T12:10:03;6.35;;;1.65;;
21122;SDS011;10719;48.130;11.630;2023-08-12T12:12:30;4.47;;;2.03;;
21122;SDS011;10719;48.130;11.630;2023-08-12T12:15:01;5.25;;;2.00;;
21122;SDS011;10719;48.130;11.630;2023-08-12T12:17:27;5.43;;;1.80;;
21122;SDS011;10719;48.130;11.630;2023-08-12T12:19:57;4.55;;;1.80;;
21122;SDS011;10719;48.130;11.630;2023-08-12T12:22:28;4.13;;;1.77;;
21122;SDS011;10719;48.130;11.630;2023-08-12T12:24:57;6.40;;;2.15;;
21122;SDS011;10719;48.130;11.630;2023-08-12T12:27:31;4.07;;;1.63;;
21122;SDS011;10719;48.130;11.630;2023-08-12T12:29:57;7.88;;;2.00;;
21122;SDS011;10719;48.130;11.630;2023-08-12T12:32:22;3.42;;;1.58;;
21122;SDS011;10719;48.130;11.630;2023-08-12T12:34:48;5.00;;;1.85;;
21122;SDS011;10719;48.130;11.630;2023-08-12T12:37:14;4.82;;;1.77;;
21122;SDS011;10719;48.130;11.630;2023-08-12T12:39:40;5.38;;;1.77;;
21122;SDS011;10719;48.130;11.630;2023-08-12T12:42:06;3.13;;;1.60;;
21122;SDS011;10719;48.130;11.630;2023-08-12T12:44:32;3.35;;;1.80;;
21122;SDS011;10719;48.130;11.630;2023-08-12T12:46:58;2.88;;;1.75;;
21122;SDS011;10719;48.130;11.630;2023-08-12T12:49:23;7.68;;;2.17;;
21122;SDS011;10719;48.130;11.630;2023-08-12T12:51:49;6.03;;;2.15;;
21122;SDS011;10719;48.130;11.630;2023-08-12T12:54:15;3.72;;;1.90;;
21122;SDS011;10719;48.130;11.630;2023-08-12T12:56:40;3.70;;;1.67;;
21122;SDS011;10719;48.130;11.630;2023-08-12T12:59:06;4.90;;;1.67;;
21122;SDS011;10719;48.130;11.630;2023-08-12T13:01:31;10.45;;;2.60;;
21122;SDS011;10719;48.130;11.630;2023-08-12T13:03:57;4.13;;;1.95;;
21122;SDS011;10719;48.130;11.630;2023-08-12T13:06:23;4.78;;;2.03;;
21122;SDS011;10719;48.130;11.630;2023-08-12T13:08:48;4.78;;;1.92;;
21122;SDS011;10719;48.130;11.630;2023-08-12T13:11:15;5.78;;;2.10;;
21122;SDS011;10719;48.130;11.630;2023-08-12T13:13:40;6.70;;;2.25;;
21122;SDS011;10719;48.130;11.630;2023-08-12T13:16:06;5.95;;;2.17;;
21122;SDS011;10719;48.130;11.630;2023-08-12T13:18:33;6.32;;;2.25;;
21122;SDS011;10719;48.130;11.630;2023-08-12T13:20:59;5.20;;;2.38;;
21122;SDS011;10719;48.130;11.630;2023-08-12T13:23:25;6.53;;;2.45;;
21122;SDS011;10719;48.130;11.630;2023-08-12T13:26:11;7.13;;;2.78;;
21122;SDS011;10719;48.130;11.630;2023-08-12T13:28:36;3.60;;;2.05;;
21122;SDS011;10719;48.130;11.630;2023-08-12T13:31:02;6.15;;;2.60;;
21122;SDS011;10719;48.130;11.630;2023-08-12T13:33:28;7.23;;;2.83;;
21122;SDS011;10719;48.130;11.630;2023-08-12T13:35:53;9.57;;;2.65;;
21122;SDS011;10719;48.130;11.630;2023-08-12T13:38:19;4.50;;;2.13;;
21122;SDS011;10719;48.130;11.630;2023-08-12T13:40:45;5.15;;;2.60;;
21122;SDS011;10719;48.130;11.630;2023-08-12T13:43:11;4.80;;;2.20;;
21122;SDS011;10719;48.130;11.630;2023-08-12T13:45:36;11.75;;;2.00;;
21122;SDS011;10719;48.130;11.630;2023-08-12T13:48:02;5.18;;;2.03;;
21122;SDS011;10719;48.130;11.630;2023-08-12T13:50:28;5.20;;;2.17;;
21122;SDS011;10719;48.130;11.630;2023-08-12T13:52:53;4.63;;;1.92;;
21122;SDS011;10719;48.130;11.630;2023-08-12T13:55:19;6.50;;;2.00;;
21122;SDS011;10719;48.130;11.630;2023-08-12T13:57:45;4.55;;;1.98;;
21122;SDS011;10719;48.130;11.630;2023-08-12T14:00:10;4.80;;;2.13;;
21122;SDS011;10719;48.130;11.630;2023-08-12T14:02:38;6.13;;;2.22;;
21122;SDS011;10719;48.130;11.630;2023-08-12T14:05:04;3.70;;;2.00;;
21122;SDS011;10719;48.130;11.630;2023-08-12T14:07:31;5.40;;;2.10;;
21122;SDS011;10719;48.130;11.630;2023-08-12T14:09:57;5.22;;;1.80;;
21122;SDS011;10719;48.130;11.630;2023-08-12T14:12:24;6.47;;;2.28;;
21122;SDS011;10719;48.130;11.630;2023-08-12T14:14:49;3.95;;;1.88;;
21122;SDS011;10719;48.130;11.630;2023-08-12T14:17:15;4.40;;;1.70;;
21122;SDS011;10719;48.130;11.630;2023-08-12T14:19:43;4.82;;;1.70;;
21122;SDS011;10719;48.130;11.630;2023-08-12T14:22:12;6.70;;;2.25;;
21122;SDS011;10719;48.130;11.630;2023-08-12T14:24:38;4.68;;;1.52;;
21122;SDS011;10719;48.130;11.630;2023-08-12T14:27:04;6.13;;;1.98;;
21122;SDS011;10719;48.130;11.630;2023-08-12T14:29:29;5.97;;;2.55;;
21122;SDS011;10719;48.130;11.630;2023-08-12T14:31:55;5.70;;;2.03;;
21122;SDS011;10719;48.130;11.630;2023-08-12T14:34:21;5.47;;;2.08;;
21122;SDS011;10719;48.130;11.630;2023-08-12T14:36:46;4.38;;;2.08;;